createdAt,value
2018-11-27T00:01:35.751Z,1.58
2018-11-27T00:04:06.553Z,1.61
2018-11-27T00:06:36.984Z,1.59
2018-11-27T00:09:09.433Z,1.60
2018-11-27T00:11:39.813Z,1.71
2018-11-27T00:14:10.199Z,1.67
2018-11-27T00:16:41.500Z,1.63
2018-11-27T00:19:11.808Z,1.57
2018-11-27T00:21:42.314Z,1.58
2018-11-27T00:24:12.728Z,1.54
2018-11-27T00:26:43.332Z,1.58
2018-11-27T00:29:13.687Z,1.49
2018-11-27T00:31:44.225Z,1.58
2018-11-27T00:34:14.717Z,1.57
2018-11-27T00:36:44.982Z,1.56
2018-11-27T00:39:15.411Z,1.58
2018-11-27T00:41:45.889Z,1.60
2018-11-27T00:44:16.326Z,1.58
2018-11-27T00:46:46.631Z,1.56
2018-11-27T00:49:16.931Z,1.58
2018-11-27T00:51:47.444Z,1.59
2018-11-27T00:54:17.947Z,1.60
2018-11-27T00:56:48.326Z,1.61
2018-11-27T00:59:18.710Z,1.59
2018-11-27T01:01:49.189Z,1.48
2018-11-27T01:04:20.264Z,1.54
2018-11-27T01:06:50.658Z,1.55
2018-11-27T01:09:21.855Z,1.51
2018-11-27T01:11:52.160Z,1.54
2018-11-27T01:14:22.544Z,1.51
2018-11-27T01:16:52.972Z,1.49
2018-11-27T01:19:23.359Z,1.51
2018-11-27T01:21:53.847Z,1.55
2018-11-27T01:24:24.543Z,1.49
2018-11-27T01:26:54.959Z,1.53
2018-11-27T01:29:25.526Z,1.46
2018-11-27T01:31:56.267Z,1.55
2018-11-27T01:34:26.569Z,1.42
2018-11-27T01:36:56.928Z,1.51
2018-11-27T01:39:27.317Z,1.48
2018-11-27T01:41:57.614Z,1.47
2018-11-27T01:44:28.270Z,1.44
2018-11-27T01:46:58.558Z,1.49
2018-11-27T01:49:29.799Z,1.47
2018-11-27T01:52:00.205Z,1.53
2018-11-27T01:54:30.607Z,1.49
2018-11-27T01:57:00.911Z,1.49
2018-11-27T01:59:31.228Z,1.46
2018-11-27T02:02:01.587Z,1.46
2018-11-27T02:04:32.771Z,1.45
2018-11-27T02:07:03.164Z,1.29
2018-11-27T02:09:33.878Z,1.42
2018-11-27T02:12:04.394Z,1.46
2018-11-27T02:14:34.679Z,1.41
2018-11-27T02:17:05.182Z,1.47
2018-11-27T02:19:35.817Z,1.39
2018-11-27T02:22:06.352Z,1.45
2018-11-27T02:24:37.075Z,1.35
2018-11-27T02:27:07.503Z,1.35
2018-11-27T02:29:37.825Z,1.42
2018-11-27T02:32:08.542Z,1.44
2018-11-27T02:34:38.899Z,1.42
2018-11-27T02:37:09.405Z,1.45
2018-11-27T02:39:39.723Z,1.30
2018-11-27T02:42:10.027Z,1.38
2018-11-27T02:44:40.745Z,1.39
2018-11-27T02:47:11.052Z,1.34
2018-11-27T02:49:41.465Z,1.34
2018-11-27T02:52:11.795Z,1.47
2018-11-27T02:54:42.211Z,1.46
2018-11-27T02:57:12.655Z,1.44
2018-11-27T02:59:43.093Z,1.35
2018-11-27T03:02:13.506Z,1.37
2018-11-27T03:04:43.808Z,1.40
2018-11-27T03:07:14.225Z,1.44
2018-11-27T03:09:44.523Z,1.44
2018-11-27T03:12:14.900Z,1.48
2018-11-27T03:14:45.308Z,1.41
2018-11-27T03:17:15.615Z,1.46
2018-11-27T03:19:45.910Z,1.45
2018-11-27T03:22:16.315Z,1.43
2018-11-27T03:24:46.728Z,1.44
2018-11-27T03:27:17.188Z,1.47
2018-11-27T03:29:47.595Z,1.48
2018-11-27T03:32:18.099Z,1.40
2018-11-27T03:34:48.472Z,1.49
2018-11-27T03:37:19.205Z,1.46
2018-11-27T03:39:49.509Z,1.41
2018-11-27T03:42:19.990Z,1.43
2018-11-27T03:44:50.352Z,1.45
2018-11-27T03:47:20.819Z,1.41
2018-11-27T03:49:51.193Z,1.41
2018-11-27T03:52:21.521Z,1.45
2018-11-27T03:54:52.415Z,1.40
2018-11-27T03:57:23.099Z,1.43
2018-11-27T03:59:53.484Z,1.47
2018-11-27T04:02:23.769Z,1.29
2018-11-27T04:04:54.155Z,1.41
2018-11-27T04:07:24.513Z,1.45
2018-11-27T04:09:54.915Z,1.42
2018-11-27T04:12:25.307Z,1.48
2018-11-27T04:14:55.823Z,1.49
2018-11-27T04:17:26.232Z,1.47
2018-11-27T04:19:56.624Z,1.42
2018-11-27T04:22:27.019Z,1.38
2018-11-27T04:24:57.497Z,1.43
2018-11-27T04:27:27.948Z,1.52
2018-11-27T04:29:58.446Z,1.51
2018-11-27T04:32:28.854Z,1.45
2018-11-27T04:34:59.347Z,1.47
2018-11-27T04:37:29.848Z,1.48
2018-11-27T04:40:00.138Z,1.49
2018-11-27T04:42:30.560Z,1.50
2018-11-27T04:45:01.248Z,1.44
2018-11-27T04:47:31.830Z,1.40
2018-11-27T04:50:02.177Z,1.37
2018-11-27T04:52:32.500Z,1.44
2018-11-27T04:55:02.910Z,1.45
2018-11-27T04:57:33.235Z,1.48
2018-11-27T05:00:03.738Z,1.48
2018-11-27T05:02:34.128Z,1.51
2018-11-27T05:05:04.721Z,1.45
2018-11-27T05:07:35.906Z,1.41
2018-11-27T05:10:14.193Z,1.48
2018-11-27T05:12:44.926Z,1.49
2018-11-27T05:15:22.414Z,1.45
2018-11-27T05:17:59.716Z,1.38
2018-11-27T05:20:30.428Z,1.43
2018-11-27T05:23:00.864Z,1.42
2018-11-27T05:25:31.185Z,1.45
2018-11-27T05:28:02.632Z,1.33
2018-11-27T05:30:33.210Z,1.45
2018-11-27T05:33:03.621Z,1.47
2018-11-27T05:35:33.935Z,1.47
2018-11-27T05:38:04.509Z,1.43
2018-11-27T05:40:34.845Z,1.35
2018-11-27T05:43:09.704Z,1.45
2018-11-27T05:45:40.092Z,1.38
2018-11-27T05:48:10.618Z,1.46
2018-11-27T05:50:41.232Z,1.45
2018-11-27T05:53:11.664Z,1.47
2018-11-27T05:55:42.195Z,1.50
2018-11-27T05:58:12.571Z,1.51
2018-11-27T06:00:43.073Z,1.48
2018-11-27T06:03:13.579Z,1.51
2018-11-27T06:05:45.065Z,1.43
2018-11-27T06:08:15.486Z,1.47
2018-11-27T06:10:45.939Z,1.53
2018-11-27T06:13:16.434Z,1.47
2018-11-27T06:15:46.825Z,1.45
2018-11-27T06:18:17.231Z,1.46
2018-11-27T06:20:47.703Z,1.52
2018-11-27T06:23:18.122Z,1.49
2018-11-27T06:25:48.684Z,1.41
2018-11-27T06:28:19.002Z,1.46
2018-11-27T06:30:49.513Z,1.48
2018-11-27T06:33:19.852Z,1.48
2018-11-27T06:35:50.161Z,1.51
2018-11-27T06:38:20.597Z,1.49
2018-11-27T06:40:51.149Z,1.52
2018-11-27T06:43:21.563Z,1.51
2018-11-27T06:45:51.912Z,1.55
2018-11-27T06:48:22.347Z,1.56
2018-11-27T06:50:52.757Z,1.46
2018-11-27T06:53:23.077Z,1.44
2018-11-27T06:55:54.487Z,1.51
2018-11-27T06:58:24.839Z,1.49
2018-11-27T07:00:55.252Z,1.46
2018-11-27T07:03:25.663Z,1.55
2018-11-27T07:05:56.070Z,1.56
2018-11-27T07:08:27.416Z,1.49
2018-11-27T07:11:00.246Z,1.61
2018-11-27T07:13:30.708Z,1.60
2018-11-27T07:16:01.361Z,1.60
2018-11-27T07:18:31.671Z,1.60
2018-11-27T07:21:02.058Z,1.65
2018-11-27T07:23:32.539Z,1.57
2018-11-27T07:26:03.370Z,1.59
2018-11-27T07:28:33.867Z,1.65
2018-11-27T07:31:04.281Z,1.59
2018-11-27T07:33:34.620Z,1.68
2018-11-27T07:36:05.114Z,1.64
2018-11-27T07:38:35.656Z,1.69
2018-11-27T07:41:06.104Z,1.72
2018-11-27T07:43:38.921Z,1.72
2018-11-27T07:46:09.419Z,1.71
2018-11-27T07:48:39.820Z,1.71
2018-11-27T07:51:10.187Z,1.75
2018-11-27T07:53:40.707Z,1.77
2018-11-27T07:56:11.029Z,1.76
2018-11-27T07:58:41.618Z,1.77
2018-11-27T08:01:12.025Z,1.77
2018-11-27T08:03:42.369Z,1.76
2018-11-27T08:06:12.774Z,1.75
2018-11-27T08:08:43.179Z,1.67
2018-11-27T08:11:13.706Z,1.71
2018-11-27T08:13:44.338Z,1.79
2018-11-27T08:16:14.678Z,1.80
2018-11-27T08:18:45.281Z,1.78
2018-11-27T08:21:15.845Z,1.78
2018-11-27T08:23:46.240Z,1.86
2018-11-27T08:26:16.640Z,1.78
2018-11-27T08:28:47.151Z,1.85
2018-11-27T08:31:17.653Z,1.88
2018-11-27T08:33:48.089Z,1.86
2018-11-27T08:36:18.417Z,1.91
2018-11-27T08:38:48.931Z,1.96
2018-11-27T08:41:19.400Z,1.94
2018-11-27T08:43:49.940Z,1.92
2018-11-27T08:46:20.282Z,1.79
2018-11-27T08:48:50.810Z,1.89
2018-11-27T08:51:22.246Z,1.86
2018-11-27T08:53:53.546Z,1.88
2018-11-27T08:56:23.984Z,1.98
2018-11-27T08:58:54.395Z,1.91
2018-11-27T09:01:24.796Z,2.07
2018-11-27T09:03:55.209Z,2.13
2018-11-27T09:06:25.874Z,2.19
2018-11-27T09:08:56.472Z,2.10
2018-11-27T09:11:27.063Z,2.14
2018-11-27T09:13:57.433Z,2.16
2018-11-27T09:16:27.847Z,1.90
2018-11-27T09:18:58.268Z,2.12
2018-11-27T09:21:28.672Z,1.87
2018-11-27T09:23:59.074Z,2.24
2018-11-27T09:26:29.403Z,1.97
2018-11-27T09:28:59.839Z,1.82
2018-11-27T09:31:30.353Z,1.94
2018-11-27T09:34:00.763Z,2.09
2018-11-27T09:36:31.064Z,2.18
2018-11-27T09:39:01.371Z,2.22
2018-11-27T09:41:31.820Z,2.38
2018-11-27T09:44:02.251Z,2.39
2018-11-27T09:46:32.650Z,2.48
2018-11-27T09:49:03.171Z,2.59
2018-11-27T09:51:33.576Z,2.63
2018-11-27T09:54:04.052Z,2.66
2018-11-27T09:56:34.586Z,2.72
2018-11-27T09:59:05.150Z,2.71
2018-11-27T10:01:35.636Z,2.57
2018-11-27T10:04:06.698Z,2.70
2018-11-27T10:06:37.237Z,2.59
2018-11-27T10:09:09.730Z,2.53
2018-11-27T10:11:40.155Z,2.57
2018-11-27T10:14:10.632Z,2.55
2018-11-27T10:16:41.008Z,2.51
2018-11-27T10:19:11.440Z,2.60
2018-11-27T10:21:41.935Z,2.77
2018-11-27T10:24:12.241Z,2.83
2018-11-27T10:26:42.701Z,2.94
2018-11-27T10:29:13.030Z,2.84
2018-11-27T10:31:43.428Z,2.62
2018-11-27T10:34:13.743Z,2.77
2018-11-27T10:36:44.070Z,2.86
2018-11-27T10:39:14.486Z,2.95
2018-11-27T10:41:45.026Z,2.92
2018-11-27T10:44:15.454Z,2.94
2018-11-27T10:46:45.748Z,2.91
2018-11-27T10:49:16.060Z,2.74
2018-11-27T10:51:46.504Z,2.72
2018-11-27T10:54:17.703Z,2.72
2018-11-27T10:56:48.131Z,2.62
2018-11-27T10:59:18.437Z,2.61
2018-11-27T11:01:56.596Z,2.62
2018-11-27T11:04:26.999Z,2.71
2018-11-27T11:06:57.322Z,2.76
2018-11-27T11:09:27.795Z,2.72
2018-11-27T11:11:59.410Z,2.75
2018-11-27T11:14:29.535Z,2.74
2018-11-27T11:16:59.950Z,2.70
2018-11-27T11:19:30.454Z,2.72
2018-11-27T11:22:00.941Z,2.67
2018-11-27T11:24:31.355Z,2.81
2018-11-27T11:27:01.926Z,2.76
2018-11-27T11:29:32.379Z,2.91
2018-11-27T11:32:02.793Z,2.93
2018-11-27T11:34:33.109Z,2.84
2018-11-27T11:37:03.528Z,2.92
2018-11-27T11:39:33.898Z,2.90
2018-11-27T11:42:04.318Z,2.95
2018-11-27T11:44:34.810Z,3.08
2018-11-27T11:47:05.622Z,2.88
2018-11-27T11:49:36.116Z,2.97
2018-11-27T11:52:06.678Z,2.97
2018-11-27T11:54:37.135Z,2.97
2018-11-27T11:57:07.897Z,2.93
2018-11-27T11:59:38.315Z,2.98
2018-11-27T12:02:09.007Z,2.97
2018-11-27T12:04:39.403Z,3.00
2018-11-27T12:07:09.818Z,3.06
2018-11-27T12:09:40.232Z,2.72
2018-11-27T12:12:11.642Z,2.54
2018-11-27T12:14:41.973Z,2.72
2018-11-27T12:17:12.386Z,2.85
2018-11-27T12:19:42.696Z,2.66
2018-11-27T12:22:13.200Z,2.72
2018-11-27T12:24:43.795Z,2.94
2018-11-27T12:27:14.156Z,2.98
2018-11-27T12:29:44.541Z,2.91
2018-11-27T12:32:15.007Z,2.93
2018-11-27T12:34:45.336Z,2.97
2018-11-27T12:37:15.731Z,2.91
2018-11-27T12:39:46.127Z,2.72
2018-11-27T12:42:16.604Z,2.75
2018-11-27T12:44:47.017Z,2.76
2018-11-27T12:47:17.585Z,2.77
2018-11-27T12:49:47.980Z,2.85
2018-11-27T12:52:18.409Z,2.79
2018-11-27T12:54:49.176Z,2.86
2018-11-27T12:57:19.694Z,2.85
2018-11-27T12:59:50.033Z,2.89
2018-11-27T13:02:20.559Z,2.81
2018-11-27T13:04:51.231Z,2.79
2018-11-27T13:07:21.637Z,2.65
2018-11-27T13:09:52.034Z,2.60
2018-11-27T13:12:22.565Z,2.68
2018-11-27T13:14:53.016Z,2.74
2018-11-27T13:17:23.525Z,2.68
2018-11-27T13:19:53.856Z,2.69
2018-11-27T13:22:24.244Z,2.64
2018-11-27T13:24:54.667Z,2.68
2018-11-27T13:27:26.460Z,2.64
2018-11-27T13:29:56.821Z,2.68
2018-11-27T13:32:27.458Z,2.73
2018-11-27T13:34:58.021Z,2.76
2018-11-27T13:37:29.423Z,2.88
2018-11-27T13:40:00.153Z,2.86
2018-11-27T13:42:30.805Z,2.75
2018-11-27T13:45:01.167Z,2.82
2018-11-27T13:47:31.945Z,2.83
2018-11-27T13:50:02.372Z,2.85
2018-11-27T13:52:32.783Z,2.67
2018-11-27T13:55:03.271Z,2.61
2018-11-27T13:57:33.698Z,2.41
2018-11-27T14:00:04.682Z,2.55
2018-11-27T14:02:35.166Z,2.42
2018-11-27T14:05:06.579Z,2.46
2018-11-27T14:07:37.022Z,2.59
2018-11-27T14:10:09.404Z,2.56
2018-11-27T14:12:40.027Z,2.58
2018-11-27T14:15:29.517Z,2.52
2018-11-27T14:17:59.997Z,2.51
2018-11-27T14:20:30.466Z,2.45
2018-11-27T14:23:00.833Z,2.46
2018-11-27T14:25:31.157Z,2.37
2018-11-27T14:28:01.760Z,2.29
2018-11-27T14:30:32.266Z,2.19
2018-11-27T14:33:02.976Z,2.10
2018-11-27T14:35:33.299Z,2.31
2018-11-27T14:38:03.736Z,2.44
2018-11-27T14:40:34.108Z,2.44
2018-11-27T14:43:04.602Z,2.33
2018-11-27T14:45:35.026Z,2.28
2018-11-27T14:48:05.687Z,2.16
2018-11-27T14:50:36.175Z,2.14
2018-11-27T14:53:07.201Z,2.21
2018-11-27T14:55:37.808Z,2.17
2018-11-27T14:58:08.470Z,2.20
2018-11-27T15:00:38.978Z,2.23
2018-11-27T15:03:09.655Z,2.27
2018-11-27T15:05:40.775Z,2.18
2018-11-27T15:08:12.511Z,2.28
2018-11-27T15:10:43.040Z,2.25
2018-11-27T15:13:14.258Z,2.10
2018-11-27T15:15:44.789Z,2.16
2018-11-27T15:18:15.353Z,2.18
2018-11-27T15:20:45.997Z,2.18
2018-11-27T15:23:16.461Z,2.14
2018-11-27T15:25:46.869Z,2.29
2018-11-27T15:28:17.219Z,2.33
2018-11-27T15:30:47.715Z,2.15
2018-11-27T15:33:18.753Z,2.18
2018-11-27T15:35:49.365Z,2.20
2018-11-27T15:38:19.692Z,2.10
2018-11-27T15:40:50.175Z,2.13
2018-11-27T15:43:20.730Z,2.14
2018-11-27T15:45:51.038Z,2.15
2018-11-27T15:48:21.488Z,2.22
2018-11-27T15:50:52.074Z,2.21
2018-11-27T15:53:22.779Z,2.42
2018-11-27T15:55:53.273Z,2.12
2018-11-27T15:58:23.605Z,2.10
2018-11-27T16:00:56.139Z,2.11
2018-11-27T16:03:26.554Z,1.98
2018-11-27T16:05:57.027Z,2.06
2018-11-27T16:08:27.463Z,2.06
2018-11-27T16:10:57.963Z,2.06
2018-11-27T16:13:28.462Z,2.08
2018-11-27T16:15:58.916Z,2.09
2018-11-27T16:18:29.340Z,2.07
2018-11-27T16:20:59.813Z,2.03
2018-11-27T16:23:30.319Z,2.05
2018-11-27T16:26:00.654Z,2.11
2018-11-27T16:28:31.086Z,2.11
2018-11-27T16:31:01.591Z,2.16
2018-11-27T16:33:32.001Z,2.09
2018-11-27T16:36:02.395Z,2.10
2018-11-27T16:38:32.911Z,2.06
2018-11-27T16:41:03.327Z,2.13
2018-11-27T16:43:33.722Z,2.02
2018-11-27T16:46:04.080Z,2.07
2018-11-27T16:48:34.400Z,2.10
2018-11-27T16:51:04.969Z,2.07
2018-11-27T16:53:35.508Z,2.07
2018-11-27T16:56:06.279Z,2.07
2018-11-27T16:58:36.699Z,2.08
2018-11-27T17:01:09.243Z,2.08
2018-11-27T17:03:38.791Z,2.08
2018-11-27T17:06:09.288Z,2.12
2018-11-27T17:08:39.811Z,2.05
2018-11-27T17:11:10.718Z,2.00
2018-11-27T17:13:41.194Z,2.12
2018-11-27T17:16:11.730Z,2.05
2018-11-27T17:18:42.152Z,2.07
2018-11-27T17:21:12.479Z,2.17
2018-11-27T17:23:42.852Z,2.03
2018-11-27T17:26:13.127Z,2.08
2018-11-27T17:28:43.436Z,2.12
2018-11-27T17:31:17.116Z,2.11
2018-11-27T17:34:01.065Z,2.10
2018-11-27T17:36:31.738Z,2.14
2018-11-27T17:39:02.059Z,2.20
2018-11-27T17:41:32.478Z,2.20
2018-11-27T17:44:03.046Z,2.21
2018-11-27T17:46:33.538Z,2.17
2018-11-27T17:49:03.924Z,2.28
2018-11-27T17:51:34.337Z,2.18
2018-11-27T17:54:04.835Z,2.16
2018-11-27T17:56:35.508Z,2.12
2018-11-27T17:59:06.063Z,2.06
2018-11-27T18:01:36.498Z,2.22
2018-11-27T18:04:07.523Z,2.17
2018-11-27T18:06:37.962Z,2.16
2018-11-27T18:09:10.074Z,2.31
2018-11-27T18:11:40.424Z,2.21
2018-11-27T18:14:10.759Z,2.16
2018-11-27T18:16:41.260Z,2.12
2018-11-27T18:19:11.585Z,2.18
2018-11-27T18:21:41.962Z,2.10
2018-11-27T18:24:12.395Z,2.07
2018-11-27T18:26:42.805Z,2.21
2018-11-27T18:29:13.340Z,2.13
2018-11-27T18:31:43.869Z,2.06
2018-11-27T18:34:14.429Z,2.11
2018-11-27T18:36:44.800Z,2.07
2018-11-27T18:39:15.361Z,2.07
2018-11-27T18:41:45.911Z,2.06
2018-11-27T18:44:16.345Z,2.12
2018-11-27T18:46:46.843Z,2.09
2018-11-27T18:49:17.187Z,2.07
2018-11-27T18:51:47.706Z,2.04
2018-11-27T18:54:18.017Z,2.11
2018-11-27T18:56:48.406Z,2.04
2018-11-27T18:59:18.921Z,2.03
2018-11-27T19:01:50.293Z,2.05
2018-11-27T19:04:20.774Z,2.06
2018-11-27T19:06:51.288Z,2.06
2018-11-27T19:09:21.703Z,2.01
2018-11-27T19:11:52.092Z,1.95
2018-11-27T19:14:22.697Z,1.92
2018-11-27T19:16:53.385Z,1.95
2018-11-27T19:19:23.794Z,1.95
2018-11-27T19:21:54.297Z,1.98
2018-11-27T19:24:24.615Z,1.97
2018-11-27T19:26:55.061Z,2.07
2018-11-27T19:29:25.403Z,1.96
2018-11-27T19:31:55.968Z,2.10
2018-11-27T19:34:26.274Z,2.09
2018-11-27T19:36:56.638Z,2.02
2018-11-27T19:39:27.156Z,2.05
2018-11-27T19:41:57.559Z,1.93
2018-11-27T19:44:27.897Z,1.94
2018-11-27T19:46:58.513Z,2.04
2018-11-27T19:49:29.011Z,2.11
2018-11-27T19:51:59.461Z,2.00
2018-11-27T19:54:29.857Z,2.04
2018-11-27T19:57:00.381Z,2.14
2018-11-27T19:59:30.789Z,2.13
2018-11-27T20:02:01.378Z,2.12
2018-11-27T20:04:31.694Z,2.00
2018-11-27T20:07:08.022Z,1.99
2018-11-27T20:09:38.392Z,2.10
2018-11-27T20:12:09.019Z,2.03
2018-11-27T20:14:39.407Z,2.07
2018-11-27T20:17:09.907Z,2.08
2018-11-27T20:19:40.422Z,2.17
2018-11-27T20:22:10.961Z,2.12
2018-11-27T20:24:41.404Z,2.06
2018-11-27T20:27:11.742Z,2.05
2018-11-27T20:29:42.188Z,2.08
2018-11-27T20:32:12.658Z,2.07
2018-11-27T20:34:42.957Z,2.12
2018-11-27T20:37:13.370Z,2.10
2018-11-27T20:39:43.822Z,1.98
2018-11-27T20:42:15.127Z,2.09
2018-11-27T20:44:45.441Z,2.10
2018-11-27T20:47:15.777Z,2.10
2018-11-27T20:49:46.270Z,2.03
2018-11-27T20:52:16.810Z,2.02
2018-11-27T20:54:47.167Z,2.05
2018-11-27T20:57:17.584Z,2.03
2018-11-27T20:59:48.092Z,2.08
2018-11-27T21:02:18.557Z,2.04
2018-11-27T21:04:49.016Z,1.99
2018-11-27T21:07:19.470Z,2.08
2018-11-27T21:09:49.856Z,2.08
2018-11-27T21:12:20.342Z,2.14
2018-11-27T21:14:50.947Z,1.99
2018-11-27T21:17:21.574Z,1.94
2018-11-27T21:19:51.971Z,1.86
2018-11-27T21:22:22.453Z,1.85
2018-11-27T21:24:52.979Z,1.88
2018-11-27T21:27:23.366Z,1.92
2018-11-27T21:29:53.707Z,1.99
2018-11-27T21:32:24.123Z,2.03
2018-11-27T21:34:54.647Z,1.99
2018-11-27T21:37:25.176Z,1.99
2018-11-27T21:39:55.535Z,1.97
2018-11-27T21:42:25.950Z,1.99
2018-11-27T21:44:56.332Z,2.07
2018-11-27T21:47:26.647Z,2.05
2018-11-27T21:49:57.100Z,2.12
2018-11-27T21:52:27.476Z,2.16
2018-11-27T21:54:57.829Z,2.04
2018-11-27T21:57:28.337Z,1.99
2018-11-27T21:59:59.469Z,1.96
2018-11-27T22:02:29.965Z,1.96
2018-11-27T22:05:00.408Z,1.98
2018-11-27T22:07:30.829Z,1.97
2018-11-27T22:10:01.263Z,1.94
2018-11-27T22:12:31.766Z,1.94
2018-11-27T22:15:02.181Z,1.94
2018-11-27T22:17:32.595Z,1.95
2018-11-27T22:20:03.088Z,1.83
2018-11-27T22:22:33.488Z,1.70
2018-11-27T22:25:03.963Z,1.77
2018-11-27T22:27:34.350Z,1.73
2018-11-27T22:30:05.785Z,1.68
2018-11-27T22:32:36.243Z,1.63
2018-11-27T22:35:07.149Z,1.52
2018-11-27T22:37:37.646Z,1.46
2018-11-27T22:40:12.213Z,1.32
2018-11-27T22:42:42.694Z,1.29
2018-11-27T22:45:20.450Z,1.30
2018-11-27T22:47:50.914Z,1.15
2018-11-27T22:50:21.604Z,1.17
2018-11-27T22:52:52.140Z,1.18
2018-11-27T22:55:22.662Z,1.17
2018-11-27T22:57:53.461Z,1.05
2018-11-27T23:00:45.034Z,0.96
2018-11-27T23:03:15.417Z,0.92
2018-11-27T23:05:45.922Z,0.86
2018-11-27T23:08:16.889Z,0.93
2018-11-27T23:10:49.205Z,0.96
2018-11-27T23:13:19.553Z,0.96
2018-11-27T23:15:50.134Z,0.96
2018-11-27T23:18:20.452Z,0.94
2018-11-27T23:20:50.752Z,0.84
2018-11-27T23:23:21.153Z,0.76
2018-11-27T23:25:52.442Z,0.75
2018-11-27T23:28:22.917Z,0.81
2018-11-27T23:30:53.344Z,0.93
2018-11-27T23:33:23.763Z,0.81
2018-11-27T23:35:54.088Z,0.77
2018-11-27T23:38:24.568Z,0.64
2018-11-27T23:40:55.550Z,0.68
2018-11-27T23:43:25.934Z,0.76
2018-11-27T23:45:56.235Z,0.80
2018-11-27T23:48:26.551Z,0.80
2018-11-27T23:50:56.960Z,0.83
2018-11-27T23:53:27.276Z,0.84
2018-11-27T23:55:57.810Z,0.94
2018-11-27T23:58:28.107Z,0.78
